sensor_id;sensor_type;location;lat;lon;timestamp;P1;durP1;ratioP1;P2;durP2;ratioP2
38427;SDS011;24211;49.980;19.776;2022-09-12T00:01:16;5.97;;;2.58;;
38427;SDS011;24211;49.980;19.776;2022-09-12T00:03:53;6.55;;;3.13;;
38427;SDS011;24211;49.980;19.776;2022-09-12T00:06:25;5.03;;;2.95;;
38427;SDS011;24211;49.980;19.776;2022-09-12T00:08:57;6.25;;;3.13;;
38427;SDS011;24211;49.980;19.776;2022-09-12T00:13:57;5.78;;;3.10;;
38427;SDS011;24211;49.980;19.776;2022-09-12T00:16:27;6.18;;;3.28;;
38427;SDS011;24211;49.980;19.776;2022-09-12T00:18:58;5.75;;;3.17;;
38427;SDS011;24211;49.980;19.776;2022-09-12T00:21:27;6.78;;;3.58;;
38427;SDS011;24211;49.980;19.776;2022-09-12T00:23:54;6.05;;;3.38;;
38427;SDS011;24211;49.980;19.776;2022-09-12T00:26:22;6.57;;;3.70;;
38427;SDS011;24211;49.980;19.776;2022-09-12T00:28:50;5.88;;;3.28;;
38427;SDS011;24211;49.980;19.776;2022-09-12T00:31:18;7.88;;;3.90;;
38427;SDS011;24211;49.980;19.776;2022-09-12T00:33:50;7.93;;;3.80;;
38427;SDS011;24211;49.980;19.776;2022-09-12T00:36:19;7.97;;;4.03;;
38427;SDS011;24211;49.980;19.776;2022-09-12T00:38:49;8.05;;;4.20;;
38427;SDS011;24211;49.980;19.776;2022-09-12T00:41:18;9.70;;;4.35;;
38427;SDS011;24211;49.980;19.776;2022-09-12T00:43:56;10.27;;;4.80;;
38427;SDS011;24211;49.980;19.776;2022-09-12T00:46:34;8.90;;;4.68;;
38427;SDS011;24211;49.980;19.776;2022-09-12T00:49:12;8.07;;;4.57;;
38427;SDS011;24211;49.980;19.776;2022-09-12T00:51:51;8.30;;;4.65;;
38427;SDS011;24211;49.980;19.776;2022-09-12T00:54:48;9.55;;;4.10;;
38427;SDS011;24211;49.980;19.776;2022-09-12T00:57:40;8.15;;;4.20;;
38427;SDS011;24211;49.980;19.776;2022-09-12T01:00:16;7.78;;;4.10;;
38427;SDS011;24211;49.980;19.776;2022-09-12T01:02:48;9.55;;;4.20;;
38427;SDS011;24211;49.980;19.776;2022-09-12T01:05:21;7.38;;;4.10;;
38427;SDS011;24211;49.980;19.776;2022-09-12T01:07:50;7.22;;;3.72;;
38427;SDS011;24211;49.980;19.776;2022-09-12T01:10:20;6.88;;;3.90;;
38427;SDS011;24211;49.980;19.776;2022-09-12T01:12:50;6.00;;;3.35;;
38427;SDS011;24211;49.980;19.776;2022-09-12T01:15:17;7.05;;;3.47;;
38427;SDS011;24211;49.980;19.776;2022-09-12T01:17:52;5.63;;;2.90;;
38427;SDS011;24211;49.980;19.776;2022-09-12T01:36:04;6.05;;;3.10;;
38427;SDS011;24211;49.980;19.776;2022-09-12T01:42:04;4.88;;;2.80;;
38427;SDS011;24211;49.980;19.776;2022-09-12T01:47:25;6.40;;;2.90;;
38427;SDS011;24211;49.980;19.776;2022-09-12T01:50:17;5.55;;;2.67;;
38427;SDS011;24211;49.980;19.776;2022-09-12T01:52:54;5.30;;;2.80;;
38427;SDS011;24211;49.980;19.776;2022-09-12T01:55:32;5.38;;;3.00;;
38427;SDS011;24211;49.980;19.776;2022-09-12T02:03:30;5.68;;;3.22;;
38427;SDS011;24211;49.980;19.776;2022-09-12T02:06:19;6.10;;;3.03;;
38427;SDS011;24211;49.980;19.776;2022-09-12T02:09:17;5.88;;;3.22;;
38427;SDS011;24211;49.980;19.776;2022-09-12T02:12:03;5.78;;;3.25;;
38427;SDS011;24211;49.980;19.776;2022-09-12T02:14:39;7.82;;;3.03;;
38427;SDS011;24211;49.980;19.776;2022-09-12T02:17:21;5.95;;;3.08;;
38427;SDS011;24211;49.980;19.776;2022-09-12T02:19:53;4.93;;;2.75;;
38427;SDS011;24211;49.980;19.776;2022-09-12T02:23:14;5.93;;;3.08;;
38427;SDS011;24211;49.980;19.776;2022-09-12T02:25:50;5.47;;;2.80;;
38427;SDS011;24211;49.980;19.776;2022-09-12T02:28:25;5.55;;;2.97;;
38427;SDS011;24211;49.980;19.776;2022-09-12T02:31:00;5.50;;;2.85;;
38427;SDS011;24211;49.980;19.776;2022-09-12T02:39:27;5.22;;;2.53;;
38427;SDS011;24211;49.980;19.776;2022-09-12T02:41:54;5.32;;;2.92;;
38427;SDS011;24211;49.980;19.776;2022-09-12T02:44:26;6.50;;;2.95;;
38427;SDS011;24211;49.980;19.776;2022-09-12T02:47:03;6.03;;;3.45;;
38427;SDS011;24211;49.980;19.776;2022-09-12T02:49:39;5.68;;;3.10;;
38427;SDS011;24211;49.980;19.776;2022-09-12T02:52:07;6.72;;;3.17;;
38427;SDS011;24211;49.980;19.776;2022-09-12T02:54:34;5.63;;;2.88;;
38427;SDS011;24211;49.980;19.776;2022-09-12T02:57:04;5.90;;;2.97;;
38427;SDS011;24211;49.980;19.776;2022-09-12T02:59:52;5.13;;;2.72;;
38427;SDS011;24211;49.980;19.776;2022-09-12T03:05:31;4.72;;;2.70;;
38427;SDS011;24211;49.980;19.776;2022-09-12T03:11:36;5.32;;;2.67;;
38427;SDS011;24211;49.980;19.776;2022-09-12T03:20:10;4.80;;;2.60;;
38427;SDS011;24211;49.980;19.776;2022-09-12T03:22:57;5.85;;;2.90;;
38427;SDS011;24211;49.980;19.776;2022-09-12T03:25:47;5.43;;;3.08;;
38427;SDS011;24211;49.980;19.776;2022-09-12T03:28:23;5.60;;;2.70;;
38427;SDS011;24211;49.980;19.776;2022-09-12T03:30:50;6.10;;;3.13;;
38427;SDS011;24211;49.980;19.776;2022-09-12T03:33:21;4.90;;;2.60;;
38427;SDS011;24211;49.980;19.776;2022-09-12T03:35:51;5.90;;;2.80;;
38427;SDS011;24211;49.980;19.776;2022-09-12T03:38:20;6.63;;;3.08;;
38427;SDS011;24211;49.980;19.776;2022-09-12T03:40:47;5.93;;;2.75;;
38427;SDS011;24211;49.980;19.776;2022-09-12T03:43:21;5.53;;;3.08;;
38427;SDS011;24211;49.980;19.776;2022-09-12T03:45:51;8.80;;;3.42;;
38427;SDS011;24211;49.980;19.776;2022-09-12T03:48:19;5.05;;;2.72;;
38427;SDS011;24211;49.980;19.776;2022-09-12T03:50:46;8.15;;;3.42;;
38427;SDS011;24211;49.980;19.776;2022-09-12T03:53:13;6.97;;;3.60;;
38427;SDS011;24211;49.980;19.776;2022-09-12T03:55:43;8.90;;;4.00;;
38427;SDS011;24211;49.980;19.776;2022-09-12T03:58:10;6.68;;;3.70;;
38427;SDS011;24211;49.980;19.776;2022-09-12T04:00:38;7.30;;;4.00;;
38427;SDS011;24211;49.980;19.776;2022-09-12T04:03:05;8.60;;;3.95;;
38427;SDS011;24211;49.980;19.776;2022-09-12T04:05:33;6.40;;;3.38;;
38427;SDS011;24211;49.980;19.776;2022-09-12T04:08:01;6.35;;;3.80;;
38427;SDS011;24211;49.980;19.776;2022-09-12T04:10:29;7.63;;;4.05;;
38427;SDS011;24211;49.980;19.776;2022-09-12T04:12:58;8.20;;;4.32;;
38427;SDS011;24211;49.980;19.776;2022-09-12T04:15:25;10.20;;;4.30;;
38427;SDS011;24211;49.980;19.776;2022-09-12T04:17:52;7.47;;;4.13;;
38427;SDS011;24211;49.980;19.776;2022-09-12T04:20:20;7.03;;;3.85;;
38427;SDS011;24211;49.980;19.776;2022-09-12T04:22:47;7.10;;;3.92;;
38427;SDS011;24211;49.980;19.776;2022-09-12T04:25:14;6.65;;;3.55;;
38427;SDS011;24211;49.980;19.776;2022-09-12T04:27:43;7.07;;;3.67;;
38427;SDS011;24211;49.980;19.776;2022-09-12T04:30:10;6.53;;;3.55;;
38427;SDS011;24211;49.980;19.776;2022-09-12T04:32:37;7.07;;;3.70;;
38427;SDS011;24211;49.980;19.776;2022-09-12T04:35:06;7.53;;;3.97;;
38427;SDS011;24211;49.980;19.776;2022-09-12T04:37:34;6.47;;;3.58;;
38427;SDS011;24211;49.980;19.776;2022-09-12T04:40:01;7.28;;;4.00;;
38427;SDS011;24211;49.980;19.776;2022-09-12T04:42:29;7.35;;;3.90;;
38427;SDS011;24211;49.980;19.776;2022-09-12T04:44:56;8.98;;;4.35;;
38427;SDS011;24211;49.980;19.776;2022-09-12T04:47:23;8.10;;;4.35;;
38427;SDS011;24211;49.980;19.776;2022-09-12T04:49:51;9.65;;;5.25;;
38427;SDS011;24211;49.980;19.776;2022-09-12T04:52:18;10.05;;;5.80;;
38427;SDS011;24211;49.980;19.776;2022-09-12T04:54:45;10.63;;;5.53;;
38427;SDS011;24211;49.980;19.776;2022-09-12T04:57:13;11.02;;;6.15;;
38427;SDS011;24211;49.980;19.776;2022-09-12T04:59:40;12.27;;;6.30;;
38427;SDS011;24211;49.980;19.776;2022-09-12T05:02:08;13.05;;;5.97;;
38427;SDS011;24211;49.980;19.776;2022-09-12T05:04:35;10.80;;;6.22;;
38427;SDS011;24211;49.980;19.776;2022-09-12T05:07:03;10.55;;;5.97;;
38427;SDS011;24211;49.980;19.776;2022-09-12T05:09:31;11.57;;;6.45;;
38427;SDS011;24211;49.980;19.776;2022-09-12T05:11:58;12.73;;;7.10;;
38427;SDS011;24211;49.980;19.776;2022-09-12T05:14:32;12.18;;;7.13;;
38427;SDS011;24211;49.980;19.776;2022-09-12T05:17:01;12.38;;;7.13;;
38427;SDS011;24211;49.980;19.776;2022-09-12T05:19:30;11.50;;;6.57;;
38427;SDS011;24211;49.980;19.776;2022-09-12T05:21:58;12.40;;;6.97;;
38427;SDS011;24211;49.980;19.776;2022-09-12T05:24:26;13.13;;;7.30;;
38427;SDS011;24211;49.980;19.776;2022-09-12T05:26:54;12.95;;;7.13;;
38427;SDS011;24211;49.980;19.776;2022-09-12T05:29:21;12.43;;;7.32;;
38427;SDS011;24211;49.980;19.776;2022-09-12T05:31:50;11.98;;;6.93;;
38427;SDS011;24211;49.980;19.776;2022-09-12T05:34:18;16.25;;;7.78;;
38427;SDS011;24211;49.980;19.776;2022-09-12T05:36:46;12.07;;;6.93;;
38427;SDS011;24211;49.980;19.776;2022-09-12T05:39:14;12.98;;;7.35;;
38427;SDS011;24211;49.980;19.776;2022-09-12T05:41:41;11.18;;;6.63;;
38427;SDS011;24211;49.980;19.776;2022-09-12T05:44:11;10.88;;;6.32;;
38427;SDS011;24211;49.980;19.776;2022-09-12T05:49:11;10.77;;;6.20;;
38427;SDS011;24211;49.980;19.776;2022-09-12T05:51:40;11.27;;;6.45;;
38427;SDS011;24211;49.980;19.776;2022-09-12T05:54:12;13.15;;;6.72;;
38427;SDS011;24211;49.980;19.776;2022-09-12T05:59:15;9.90;;;5.68;;
38427;SDS011;24211;49.980;19.776;2022-09-12T06:01:46;11.63;;;6.55;;
38427;SDS011;24211;49.980;19.776;2022-09-12T06:04:14;13.95;;;6.97;;
38427;SDS011;24211;49.980;19.776;2022-09-12T06:06:43;9.25;;;5.85;;
38427;SDS011;24211;49.980;19.776;2022-09-12T06:09:15;11.02;;;6.32;;
38427;SDS011;24211;49.980;19.776;2022-09-12T06:11:44;11.48;;;5.63;;
38427;SDS011;24211;49.980;19.776;2022-09-12T06:14:15;10.07;;;6.18;;
38427;SDS011;24211;49.980;19.776;2022-09-12T06:16:43;10.65;;;5.90;;
38427;SDS011;24211;49.980;19.776;2022-09-12T06:19:16;11.57;;;6.00;;
38427;SDS011;24211;49.980;19.776;2022-09-12T06:21:47;10.55;;;5.80;;
38427;SDS011;24211;49.980;19.776;2022-09-12T06:24:16;9.68;;;5.30;;
38427;SDS011;24211;49.980;19.776;2022-09-12T06:26:45;11.60;;;5.80;;
38427;SDS011;24211;49.980;19.776;2022-09-12T06:29:14;9.95;;;5.80;;
38427;SDS011;24211;49.980;19.776;2022-09-12T06:31:42;8.68;;;5.00;;
38427;SDS011;24211;49.980;19.776;2022-09-12T06:34:11;9.45;;;5.10;;
38427;SDS011;24211;49.980;19.776;2022-09-12T06:36:44;10.52;;;5.38;;
38427;SDS011;24211;49.980;19.776;2022-09-12T06:39:15;8.55;;;5.05;;
38427;SDS011;24211;49.980;19.776;2022-09-12T06:41:46;10.48;;;5.20;;
38427;SDS011;24211;49.980;19.776;2022-09-12T06:44:17;8.65;;;4.93;;
38427;SDS011;24211;49.980;19.776;2022-09-12T06:46:47;9.43;;;5.38;;
38427;SDS011;24211;49.980;19.776;2022-09-12T06:49:15;9.02;;;5.05;;
38427;SDS011;24211;49.980;19.776;2022-09-12T06:51:43;9.52;;;5.30;;
38427;SDS011;24211;49.980;19.776;2022-09-12T06:54:11;11.38;;;4.82;;
38427;SDS011;24211;49.980;19.776;2022-09-12T06:56:41;9.25;;;4.78;;
38427;SDS011;24211;49.980;19.776;2022-09-12T06:59:08;8.40;;;4.55;;
38427;SDS011;24211;49.980;19.776;2022-09-12T07:01:36;8.73;;;4.82;;
38427;SDS011;24211;49.980;19.776;2022-09-12T07:04:03;7.82;;;4.63;;
38427;SDS011;24211;49.980;19.776;2022-09-12T07:06:35;10.35;;;4.72;;
38427;SDS011;24211;49.980;19.776;2022-09-12T07:09:07;7.88;;;4.05;;
38427;SDS011;24211;49.980;19.776;2022-09-12T07:11:39;7.95;;;4.20;;
38427;SDS011;24211;49.980;19.776;2022-09-12T07:14:10;8.07;;;4.10;;
38427;SDS011;24211;49.980;19.776;2022-09-12T07:16:39;7.45;;;4.10;;
38427;SDS011;24211;49.980;19.776;2022-09-12T07:19:07;7.70;;;4.57;;
38427;SDS011;24211;49.980;19.776;2022-09-12T07:21:35;6.82;;;4.00;;
38427;SDS011;24211;49.980;19.776;2022-09-12T07:24:06;9.02;;;4.20;;
38427;SDS011;24211;49.980;19.776;2022-09-12T07:26:37;7.22;;;4.13;;
38427;SDS011;24211;49.980;19.776;2022-09-12T07:29:06;6.93;;;3.88;;
38427;SDS011;24211;49.980;19.776;2022-09-12T07:31:59;7.25;;;3.90;;
38427;SDS011;24211;49.980;19.776;2022-09-12T07:34:27;9.68;;;3.80;;
38427;SDS011;24211;49.980;19.776;2022-09-12T07:36:55;7.97;;;4.18;;
38427;SDS011;24211;49.980;19.776;2022-09-12T07:39:22;10.60;;;4.60;;
38427;SDS011;24211;49.980;19.776;2022-09-12T07:41:49;7.72;;;4.10;;
38427;SDS011;24211;49.980;19.776;2022-09-12T07:44:17;7.70;;;4.07;;
38427;SDS011;24211;49.980;19.776;2022-09-12T07:46:44;7.20;;;3.95;;
38427;SDS011;24211;49.980;19.776;2022-09-12T07:49:11;9.73;;;4.30;;
38427;SDS011;24211;49.980;19.776;2022-09-12T07:51:38;7.57;;;3.75;;
38427;SDS011;24211;49.980;19.776;2022-09-12T07:54:07;7.75;;;3.42;;
38427;SDS011;24211;49.980;19.776;2022-09-12T07:56:35;5.07;;;2.80;;
38427;SDS011;24211;49.980;19.776;2022-09-12T07:59:05;4.85;;;2.80;;
38427;SDS011;24211;49.980;19.776;2022-09-12T08:01:34;8.07;;;2.78;;
38427;SDS011;24211;49.980;19.776;2022-09-12T08:04:02;5.85;;;2.85;;
38427;SDS011;24211;49.980;19.776;2022-09-12T08:06:30;4.63;;;2.47;;
38427;SDS011;24211;49.980;19.776;2022-09-12T08:09:02;7.30;;;2.72;;
38427;SDS011;24211;49.980;19.776;2022-09-12T08:11:31;5.57;;;2.70;;
38427;SDS011;24211;49.980;19.776;2022-09-12T08:13:59;7.25;;;2.60;;
38427;SDS011;24211;49.980;19.776;2022-09-12T08:16:29;5.57;;;2.67;;
38427;SDS011;24211;49.980;19.776;2022-09-12T08:18:59;4.40;;;2.20;;
38427;SDS011;24211;49.980;19.776;2022-09-12T08:21:28;3.70;;;2.20;;
38427;SDS011;24211;49.980;19.776;2022-09-12T08:23:59;5.15;;;2.40;;
38427;SDS011;24211;49.980;19.776;2022-09-12T08:26:32;5.43;;;2.50;;
38427;SDS011;24211;49.980;19.776;2022-09-12T08:29:00;5.80;;;2.45;;
38427;SDS011;24211;49.980;19.776;2022-09-12T08:31:27;5.13;;;2.33;;
38427;SDS011;24211;49.980;19.776;2022-09-12T08:33:57;5.38;;;2.35;;
38427;SDS011;24211;49.980;19.776;2022-09-12T08:36:25;5.25;;;2.30;;
38427;SDS011;24211;49.980;19.776;2022-09-12T08:38:58;4.30;;;2.15;;
38427;SDS011;24211;49.980;19.776;2022-09-12T08:41:29;6.88;;;2.05;;
38427;SDS011;24211;49.980;19.776;2022-09-12T08:44:34;4.00;;;2.10;;
38427;SDS011;24211;49.980;19.776;2022-09-12T08:53:03;4.28;;;2.20;;
38427;SDS011;24211;49.980;19.776;2022-09-12T08:55:45;4.60;;;2.35;;
38427;SDS011;24211;49.980;19.776;2022-09-12T08:58:22;6.53;;;2.70;;
38427;SDS011;24211;49.980;19.776;2022-09-12T09:06:24;9.68;;;4.38;;
38427;SDS011;24211;49.980;19.776;2022-09-12T09:18:07;5.57;;;2.70;;
38427;SDS011;24211;49.980;19.776;2022-09-12T09:20:45;5.80;;;2.55;;
38427;SDS011;24211;49.980;19.776;2022-09-12T09:23:30;4.75;;;2.30;;
38427;SDS011;24211;49.980;19.776;2022-09-12T09:26:17;5.45;;;2.80;;
38427;SDS011;24211;49.980;19.776;2022-09-12T09:28:53;6.13;;;2.55;;
38427;SDS011;24211;49.980;19.776;2022-09-12T09:31:57;6.57;;;2.70;;
38427;SDS011;24211;49.980;19.776;2022-09-12T09:34:29;7.97;;;2.83;;
38427;SDS011;24211;49.980;19.776;2022-09-12T09:40:02;6.55;;;2.90;;
38427;SDS011;24211;49.980;19.776;2022-09-12T09:43:15;9.02;;;3.50;;
38427;SDS011;24211;49.980;19.776;2022-09-12T09:45:50;7.65;;;3.17;;
38427;SDS011;24211;49.980;19.776;2022-09-12T09:48:22;6.47;;;2.20;;
38427;SDS011;24211;49.980;19.776;2022-09-12T09:50:56;3.83;;;1.63;;
38427;SDS011;24211;49.980;19.776;2022-09-12T09:56:29;9.02;;;3.63;;
38427;SDS011;24211;49.980;19.776;2022-09-12T10:01:54;6.75;;;2.47;;
38427;SDS011;24211;49.980;19.776;2022-09-12T10:04:30;4.70;;;2.10;;
38427;SDS011;24211;49.980;19.776;2022-09-12T10:07:16;7.93;;;2.53;;
38427;SDS011;24211;49.980;19.776;2022-09-12T10:12:43;8.10;;;2.70;;
38427;SDS011;24211;49.980;19.776;2022-09-12T10:15:15;5.35;;;1.80;;
38427;SDS011;24211;49.980;19.776;2022-09-12T10:17:51;3.85;;;1.63;;
38427;SDS011;24211;49.980;19.776;2022-09-12T10:20:32;3.90;;;1.90;;
38427;SDS011;24211;49.980;19.776;2022-09-12T10:25:45;4.18;;;1.80;;
38427;SDS011;24211;49.980;19.776;2022-09-12T10:28:31;5.30;;;2.03;;
38427;SDS011;24211;49.980;19.776;2022-09-12T10:31:06;5.63;;;2.47;;
38427;SDS011;24211;49.980;19.776;2022-09-12T10:33:45;6.97;;;2.70;;
38427;SDS011;24211;49.980;19.776;2022-09-12T10:36:19;7.75;;;3.10;;
38427;SDS011;24211;49.980;19.776;2022-09-12T10:38:51;7.55;;;3.10;;
38427;SDS011;24211;49.980;19.776;2022-09-12T10:41:23;6.30;;;2.70;;
38427;SDS011;24211;49.980;19.776;2022-09-12T10:43:51;5.82;;;2.50;;
38427;SDS011;24211;49.980;19.776;2022-09-12T10:48:50;5.13;;;1.80;;
38427;SDS011;24211;49.980;19.776;2022-09-12T10:51:39;3.08;;;1.60;;
38427;SDS011;24211;49.980;19.776;2022-09-12T10:54:07;3.13;;;1.50;;
38427;SDS011;24211;49.980;19.776;2022-09-12T10:56:42;3.22;;;1.35;;
38427;SDS011;24211;49.980;19.776;2022-09-12T11:02:27;4.20;;;1.70;;
38427;SDS011;24211;49.980;19.776;2022-09-12T11:05:30;3.50;;;1.30;;
38427;SDS011;24211;49.980;19.776;2022-09-12T11:08:46;4.82;;;1.58;;
38427;SDS011;24211;49.980;19.776;2022-09-12T11:11:42;2.33;;;1.20;;
38427;SDS011;24211;49.980;19.776;2022-09-12T11:17:50;4.00;;;1.90;;
38427;SDS011;24211;49.980;19.776;2022-09-12T11:23:56;3.40;;;1.48;;
38427;SDS011;24211;49.980;19.776;2022-09-12T11:29:51;2.45;;;1.38;;
38427;SDS011;24211;49.980;19.776;2022-09-12T11:35:40;3.53;;;1.50;;
38427;SDS011;24211;49.980;19.776;2022-09-12T11:41:25;3.33;;;1.30;;
38427;SDS011;24211;49.980;19.776;2022-09-12T11:46:45;3.00;;;1.40;;
38427;SDS011;24211;49.980;19.776;2022-09-12T11:49:18;6.40;;;1.40;;
38427;SDS011;24211;49.980;19.776;2022-09-12T11:52:10;3.53;;;1.10;;
38427;SDS011;24211;49.980;19.776;2022-09-12T11:54:52;3.95;;;1.25;;
38427;SDS011;24211;49.980;19.776;2022-09-12T11:57:43;3.88;;;1.30;;
38427;SDS011;24211;49.980;19.776;2022-09-12T12:00:18;3.13;;;1.50;;
38427;SDS011;24211;49.980;19.776;2022-09-12T12:08:30;4.97;;;1.10;;
38427;SDS011;24211;49.980;19.776;2022-09-12T12:11:05;2.83;;;1.02;;
38427;SDS011;24211;49.980;19.776;2022-09-12T12:13:49;2.22;;;1.00;;
38427;SDS011;24211;49.980;19.776;2022-09-12T12:16:36;1.83;;;0.85;;
38427;SDS011;24211;49.980;19.776;2022-09-12T12:21:40;2.75;;;1.10;;
38427;SDS011;24211;49.980;19.776;2022-09-12T12:29:48;2.58;;;1.20;;
38427;SDS011;24211;49.980;19.776;2022-09-12T12:34:43;4.25;;;1.10;;
38427;SDS011;24211;49.980;19.776;2022-09-12T12:39:57;2.80;;;0.98;;
38427;SDS011;24211;49.980;19.776;2022-09-12T12:45:02;2.72;;;0.98;;
38427;SDS011;24211;49.980;19.776;2022-09-12T12:47:46;3.10;;;1.23;;
38427;SDS011;24211;49.980;19.776;2022-09-12T12:52:58;2.80;;;1.10;;
38427;SDS011;24211;49.980;19.776;2022-09-12T13:01:20;1.85;;;1.00;;
38427;SDS011;24211;49.980;19.776;2022-09-12T13:03:53;3.00;;;1.17;;
38427;SDS011;24211;49.980;19.776;2022-09-12T13:06:40;2.23;;;0.97;;
38427;SDS011;24211;49.980;19.776;2022-09-12T13:09:26;2.72;;;1.17;;
38427;SDS011;24211;49.980;19.776;2022-09-12T13:12:06;3.70;;;1.20;;
38427;SDS011;24211;49.980;19.776;2022-09-12T13:17:23;2.45;;;1.10;;
38427;SDS011;24211;49.980;19.776;2022-09-12T13:22:55;1.60;;;0.80;;
38427;SDS011;24211;49.980;19.776;2022-09-12T13:25:26;2.97;;;1.20;;
38427;SDS011;24211;49.980;19.776;2022-09-12T13:30:38;2.00;;;0.90;;
38427;SDS011;24211;49.980;19.776;2022-09-12T13:33:19;2.50;;;1.10;;
38427;SDS011;24211;49.980;19.776;2022-09-12T13:39:02;1.55;;;0.80;;
38427;SDS011;24211;49.980;19.776;2022-09-12T13:42:03;2.03;;;0.90;;
38427;SDS011;24211;49.980;19.776;2022-09-12T13:44:49;3.28;;;0.90;;
38427;SDS011;24211;49.980;19.776;2022-09-12T13:47:25;2.58;;;1.00;;
38427;SDS011;24211;49.980;19.776;2022-09-12T13:50:04;1.77;;;0.90;;
38427;SDS011;24211;49.980;19.776;2022-09-12T13:52:34;2.53;;;0.95;;
38427;SDS011;24211;49.980;19.776;2022-09-12T13:55:07;2.33;;;1.00;;
38427;SDS011;24211;49.980;19.776;2022-09-12T13:58:03;3.70;;;0.80;;
38427;SDS011;24211;49.980;19.776;2022-09-12T14:03:46;3.40;;;1.10;;
38427;SDS011;24211;49.980;19.776;2022-09-12T14:06:35;2.58;;;0.85;;
38427;SDS011;24211;49.980;19.776;2022-09-12T14:09:13;2.38;;;1.00;;
38427;SDS011;24211;49.980;19.776;2022-09-12T14:11:51;2.08;;;0.90;;
38427;SDS011;24211;49.980;19.776;2022-09-12T14:14:22;2.78;;;0.90;;
38427;SDS011;24211;49.980;19.776;2022-09-12T14:17:15;2.53;;;0.90;;
38427;SDS011;24211;49.980;19.776;2022-09-12T14:19:50;2.60;;;1.20;;
38427;SDS011;24211;49.980;19.776;2022-09-12T14:22:18;2.42;;;1.00;;
38427;SDS011;24211;49.980;19.776;2022-09-12T14:24:48;3.95;;;1.25;;
38427;SDS011;24211;49.980;19.776;2022-09-12T14:27:18;2.40;;;1.00;;
38427;SDS011;24211;49.980;19.776;2022-09-12T14:30:04;2.53;;;1.13;;
38427;SDS011;24211;49.980;19.776;2022-09-12T14:36:24;2.05;;;1.10;;
38427;SDS011;24211;49.980;19.776;2022-09-12T14:38:42;3.33;;;1.10;;
38427;SDS011;24211;49.980;19.776;2022-09-12T14:41:19;2.45;;;1.17;;
38427;SDS011;24211;49.980;19.776;2022-09-12T14:43:55;2.17;;;1.13;;
38427;SDS011;24211;49.980;19.776;2022-09-12T14:57:03;3.47;;;1.27;;
38427;SDS011;24211;49.980;19.776;2022-09-12T15:02:38;4.13;;;1.20;;
38427;SDS011;24211;49.980;19.776;2022-09-12T15:07:43;3.15;;;1.20;;
38427;SDS011;24211;49.980;19.776;2022-09-12T15:10:24;2.58;;;1.10;;
38427;SDS011;24211;49.980;19.776;2022-09-12T15:13:09;2.78;;;1.00;;
38427;SDS011;24211;49.980;19.776;2022-09-12T15:15:44;2.33;;;1.15;;
38427;SDS011;24211;49.980;19.776;2022-09-12T15:18:18;2.63;;;1.17;;
38427;SDS011;24211;49.980;19.776;2022-09-12T15:20:48;2.03;;;0.90;;
38427;SDS011;24211;49.980;19.776;2022-09-12T15:23:22;3.35;;;1.20;;
38427;SDS011;24211;49.980;19.776;2022-09-12T15:26:12;2.35;;;1.10;;
38427;SDS011;24211;49.980;19.776;2022-09-12T15:28:45;2.67;;;1.30;;
38427;SDS011;24211;49.980;19.776;2022-09-12T15:31:26;4.45;;;1.20;;
38427;SDS011;24211;49.980;19.776;2022-09-12T15:33:57;2.20;;;1.13;;
38427;SDS011;24211;49.980;19.776;2022-09-12T15:36:28;2.88;;;1.48;;
38427;SDS011;24211;49.980;19.776;2022-09-12T15:38:56;2.53;;;1.23;;
38427;SDS011;24211;49.980;19.776;2022-09-12T15:41:25;3.92;;;1.30;;
38427;SDS011;24211;49.980;19.776;2022-09-12T15:44:05;3.75;;;1.38;;
38427;SDS011;24211;49.980;19.776;2022-09-12T15:46:37;3.05;;;1.38;;
38427;SDS011;24211;49.980;19.776;2022-09-12T15:49:05;2.38;;;1.40;;
38427;SDS011;24211;49.980;19.776;2022-09-12T15:51:33;2.90;;;1.40;;
38427;SDS011;24211;49.980;19.776;2022-09-12T15:54:00;3.35;;;1.40;;
38427;SDS011;24211;49.980;19.776;2022-09-12T15:56:29;3.33;;;1.33;;
38427;SDS011;24211;49.980;19.776;2022-09-12T15:58:57;3.88;;;1.33;;
38427;SDS011;24211;49.980;19.776;2022-09-12T16:01:27;2.80;;;1.20;;
38427;SDS011;24211;49.980;19.776;2022-09-12T16:03:55;2.58;;;1.35;;
38427;SDS011;24211;49.980;19.776;2022-09-12T16:06:23;2.65;;;1.25;;
38427;SDS011;24211;49.980;19.776;2022-09-12T16:08:51;3.13;;;1.45;;
38427;SDS011;24211;49.980;19.776;2022-09-12T16:11:19;3.10;;;1.40;;
38427;SDS011;24211;49.980;19.776;2022-09-12T16:13:53;2.97;;;1.20;;
38427;SDS011;24211;49.980;19.776;2022-09-12T16:16:22;2.97;;;1.63;;
38427;SDS011;24211;49.980;19.776;2022-09-12T16:18:49;3.15;;;1.30;;
38427;SDS011;24211;49.980;19.776;2022-09-12T16:21:17;3.25;;;1.48;;
38427;SDS011;24211;49.980;19.776;2022-09-12T16:23:44;3.25;;;1.33;;
38427;SDS011;24211;49.980;19.776;2022-09-12T16:26:13;2.80;;;1.20;;
38427;SDS011;24211;49.980;19.776;2022-09-12T16:28:42;3.90;;;1.58;;
38427;SDS011;24211;49.980;19.776;2022-09-12T16:31:11;4.90;;;1.35;;
38427;SDS011;24211;49.980;19.776;2022-09-12T16:33:41;3.35;;;1.45;;
38427;SDS011;24211;49.980;19.776;2022-09-12T16:36:09;3.35;;;1.50;;
38427;SDS011;24211;49.980;19.776;2022-09-12T16:38:41;2.88;;;1.58;;
38427;SDS011;24211;49.980;19.776;2022-09-12T16:41:13;3.30;;;1.27;;
38427;SDS011;24211;49.980;19.776;2022-09-12T16:43:43;3.72;;;1.40;;
38427;SDS011;24211;49.980;19.776;2022-09-12T16:46:12;3.17;;;1.38;;
38427;SDS011;24211;49.980;19.776;2022-09-12T16:48:50;2.72;;;1.48;;
38427;SDS011;24211;49.980;19.776;2022-09-12T16:51:21;4.43;;;1.60;;
38427;SDS011;24211;49.980;19.776;2022-09-12T16:53:56;4.05;;;1.73;;
38427;SDS011;24211;49.980;19.776;2022-09-12T16:56:23;3.40;;;1.58;;
38427;SDS011;24211;49.980;19.776;2022-09-12T16:58:51;3.45;;;1.80;;
38427;SDS011;24211;49.980;19.776;2022-09-12T17:01:21;3.75;;;1.77;;
38427;SDS011;24211;49.980;19.776;2022-09-12T17:03:51;3.88;;;1.60;;
38427;SDS011;24211;49.980;19.776;2022-09-12T17:06:20;3.90;;;1.85;;
38427;SDS011;24211;49.980;19.776;2022-09-12T17:08:49;4.80;;;1.52;;
38427;SDS011;24211;49.980;19.776;2022-09-12T17:11:21;4.40;;;1.63;;
38427;SDS011;24211;49.980;19.776;2022-09-12T17:13:51;3.95;;;1.85;;
38427;SDS011;24211;49.980;19.776;2022-09-12T17:16:41;2.97;;;1.52;;
38427;SDS011;24211;49.980;19.776;2022-09-12T17:19:21;3.65;;;1.60;;
38427;SDS011;24211;49.980;19.776;2022-09-12T17:21:53;3.38;;;1.60;;
38427;SDS011;24211;49.980;19.776;2022-09-12T17:24:22;2.90;;;1.40;;
38427;SDS011;24211;49.980;19.776;2022-09-12T17:26:50;2.88;;;1.50;;
38427;SDS011;24211;49.980;19.776;2022-09-12T17:29:19;3.83;;;1.75;;
38427;SDS011;24211;49.980;19.776;2022-09-12T17:31:47;2.95;;;1.42;;
38427;SDS011;24211;49.980;19.776;2022-09-12T17:34:14;3.75;;;1.45;;
38427;SDS011;24211;49.980;19.776;2022-09-12T17:36:43;2.88;;;1.35;;
38427;SDS011;24211;49.980;19.776;2022-09-12T17:39:14;3.17;;;1.33;;
38427;SDS011;24211;49.980;19.776;2022-09-12T17:41:41;3.15;;;1.33;;
38427;SDS011;24211;49.980;19.776;2022-09-12T17:44:12;3.58;;;1.58;;
38427;SDS011;24211;49.980;19.776;2022-09-12T17:46:50;2.60;;;1.38;;
38427;SDS011;24211;49.980;19.776;2022-09-12T17:49:18;3.03;;;1.42;;
38427;SDS011;24211;49.980;19.776;2022-09-12T17:51:47;3.20;;;1.50;;
38427;SDS011;24211;49.980;19.776;2022-09-12T17:54:15;3.22;;;1.42;;
38427;SDS011;24211;49.980;19.776;2022-09-12T17:56:44;5.57;;;1.73;;
38427;SDS011;24211;49.980;19.776;2022-09-12T17:59:16;3.10;;;1.48;;
38427;SDS011;24211;49.980;19.776;2022-09-12T18:01:47;3.45;;;1.27;;
38427;SDS011;24211;49.980;19.776;2022-09-12T18:04:33;8.88;;;1.50;;
38427;SDS011;24211;49.980;19.776;2022-09-12T18:07:01;3.03;;;1.50;;